sensor_id;sensor_type;location;lat;lon;timestamp;P1;durP1;ratioP1;P2;durP2;ratioP2
55913;SDS011;58179;48.776;9.124;2023-02-15T00:01:42;160.15;;;66.20;;
55913;SDS011;58179;48.776;9.124;2023-02-15T00:04:09;191.25;;;72.10;;
55913;SDS011;58179;48.776;9.124;2023-02-15T00:06:38;161.20;;;64.60;;
55913;SDS011;58179;48.776;9.124;2023-02-15T00:09:04;189.60;;;69.65;;
55913;SDS011;58179;48.776;9.124;2023-02-15T00:11:30;181.48;;;70.15;;
55913;SDS011;58179;48.776;9.124;2023-02-15T00:14:05;148.77;;;61.53;;
55913;SDS011;58179;48.776;9.124;2023-02-15T00:16:33;135.63;;;58.88;;
55913;SDS011;58179;48.776;9.124;2023-02-15T00:19:00;146.95;;;60.45;;
55913;SDS011;58179;48.776;9.124;2023-02-15T00:21:29;159.05;;;65.40;;
55913;SDS011;58179;48.776;9.124;2023-02-15T00:23:56;151.60;;;61.35;;
55913;SDS011;58179;48.776;9.124;2023-02-15T00:26:24;175.20;;;65.97;;
55913;SDS011;58179;48.776;9.124;2023-02-15T00:28:50;141.90;;;59.25;;
55913;SDS011;58179;48.776;9.124;2023-02-15T00:31:17;163.80;;;64.55;;
55913;SDS011;58179;48.776;9.124;2023-02-15T00:33:44;152.73;;;62.55;;
55913;SDS011;58179;48.776;9.124;2023-02-15T00:36:10;139.55;;;57.22;;
55913;SDS011;58179;48.776;9.124;2023-02-15T00:38:37;158.88;;;62.22;;
55913;SDS011;58179;48.776;9.124;2023-02-15T00:41:04;143.93;;;57.95;;
55913;SDS011;58179;48.776;9.124;2023-02-15T00:43:33;126.32;;;54.63;;
55913;SDS011;58179;48.776;9.124;2023-02-15T00:46:00;153.98;;;60.72;;
55913;SDS011;58179;48.776;9.124;2023-02-15T00:48:26;147.20;;;62.05;;
55913;SDS011;58179;48.776;9.124;2023-02-15T00:50:54;159.32;;;63.35;;
55913;SDS011;58179;48.776;9.124;2023-02-15T00:53:21;160.88;;;64.80;;
55913;SDS011;58179;48.776;9.124;2023-02-15T00:55:48;144.53;;;60.67;;
55913;SDS011;58179;48.776;9.124;2023-02-15T00:58:14;145.20;;;61.47;;
55913;SDS011;58179;48.776;9.124;2023-02-15T01:00:41;162.68;;;66.47;;
55913;SDS011;58179;48.776;9.124;2023-02-15T01:03:10;162.23;;;65.63;;
55913;SDS011;58179;48.776;9.124;2023-02-15T01:05:36;173.10;;;65.82;;
55913;SDS011;58179;48.776;9.124;2023-02-15T01:08:04;153.23;;;62.15;;
55913;SDS011;58179;48.776;9.124;2023-02-15T01:10:30;139.02;;;59.13;;
55913;SDS011;58179;48.776;9.124;2023-02-15T01:12:56;129.77;;;56.05;;
55913;SDS011;58179;48.776;9.124;2023-02-15T01:15:22;133.25;;;58.80;;
55913;SDS011;58179;48.776;9.124;2023-02-15T01:17:49;139.93;;;59.85;;
55913;SDS011;58179;48.776;9.124;2023-02-15T01:20:18;154.13;;;63.38;;
55913;SDS011;58179;48.776;9.124;2023-02-15T01:22:45;137.15;;;57.92;;
55913;SDS011;58179;48.776;9.124;2023-02-15T01:25:13;163.27;;;61.97;;
55913;SDS011;58179;48.776;9.124;2023-02-15T01:27:39;133.75;;;58.30;;
55913;SDS011;58179;48.776;9.124;2023-02-15T01:30:05;126.90;;;54.78;;
55913;SDS011;58179;48.776;9.124;2023-02-15T01:32:32;143.67;;;60.53;;
55913;SDS011;58179;48.776;9.124;2023-02-15T01:34:58;142.23;;;58.85;;
55913;SDS011;58179;48.776;9.124;2023-02-15T01:37:24;157.90;;;62.83;;
55913;SDS011;58179;48.776;9.124;2023-02-15T01:39:50;141.88;;;59.35;;
55913;SDS011;58179;48.776;9.124;2023-02-15T01:42:21;131.32;;;57.03;;
55913;SDS011;58179;48.776;9.124;2023-02-15T01:44:49;141.98;;;60.67;;
55913;SDS011;58179;48.776;9.124;2023-02-15T01:47:19;134.73;;;58.17;;
55913;SDS011;58179;48.776;9.124;2023-02-15T01:49:53;121.20;;;54.17;;
55913;SDS011;58179;48.776;9.124;2023-02-15T01:52:28;172.00;;;63.35;;
55913;SDS011;58179;48.776;9.124;2023-02-15T01:54:55;160.65;;;61.95;;
55913;SDS011;58179;48.776;9.124;2023-02-15T01:57:23;143.88;;;59.63;;
55913;SDS011;58179;48.776;9.124;2023-02-15T01:59:53;160.93;;;61.50;;
55913;SDS011;58179;48.776;9.124;2023-02-15T02:02:24;138.82;;;59.63;;
55913;SDS011;58179;48.776;9.124;2023-02-15T02:04:53;143.73;;;58.65;;
55913;SDS011;58179;48.776;9.124;2023-02-15T02:07:23;140.38;;;59.22;;
55913;SDS011;58179;48.776;9.124;2023-02-15T02:09:54;119.05;;;54.33;;
55913;SDS011;58179;48.776;9.124;2023-02-15T02:12:20;132.53;;;57.63;;
55913;SDS011;58179;48.776;9.124;2023-02-15T02:14:48;137.07;;;54.40;;
55913;SDS011;58179;48.776;9.124;2023-02-15T02:17:16;127.70;;;54.77;;
55913;SDS011;58179;48.776;9.124;2023-02-15T02:20:04;148.03;;;60.93;;
55913;SDS011;58179;48.776;9.124;2023-02-15T02:32:30;122.50;;;53.42;;
55913;SDS011;58179;48.776;9.124;2023-02-15T02:35:40;128.65;;;56.78;;
55913;SDS011;58179;48.776;9.124;2023-02-15T02:38:18;119.95;;;52.95;;
55913;SDS011;58179;48.776;9.124;2023-02-15T02:40:52;133.17;;;56.53;;
55913;SDS011;58179;48.776;9.124;2023-02-15T02:43:32;125.45;;;54.30;;
55913;SDS011;58179;48.776;9.124;2023-02-15T02:46:05;133.98;;;56.45;;
55913;SDS011;58179;48.776;9.124;2023-02-15T02:48:38;116.30;;;52.10;;
55913;SDS011;58179;48.776;9.124;2023-02-15T02:51:06;149.05;;;61.13;;
55913;SDS011;58179;48.776;9.124;2023-02-15T02:53:32;131.25;;;56.22;;
55913;SDS011;58179;48.776;9.124;2023-02-15T02:55:59;133.25;;;56.33;;
55913;SDS011;58179;48.776;9.124;2023-02-15T02:58:35;141.25;;;59.05;;
55913;SDS011;58179;48.776;9.124;2023-02-15T03:01:06;152.77;;;61.83;;
55913;SDS011;58179;48.776;9.124;2023-02-15T03:03:40;129.70;;;55.78;;
55913;SDS011;58179;48.776;9.124;2023-02-15T03:06:12;148.45;;;60.30;;
55913;SDS011;58179;48.776;9.124;2023-02-15T03:08:44;137.47;;;58.73;;
55913;SDS011;58179;48.776;9.124;2023-02-15T03:11:16;157.95;;;62.25;;
55913;SDS011;58179;48.776;9.124;2023-02-15T03:13:42;133.07;;;55.70;;
55913;SDS011;58179;48.776;9.124;2023-02-15T03:16:10;153.82;;;60.97;;
55913;SDS011;58179;48.776;9.124;2023-02-15T03:18:51;122.30;;;53.03;;
55913;SDS011;58179;48.776;9.124;2023-02-15T03:21:27;129.75;;;54.30;;
55913;SDS011;58179;48.776;9.124;2023-02-15T03:24:00;163.35;;;65.93;;
55913;SDS011;58179;48.776;9.124;2023-02-15T03:26:33;140.68;;;58.22;;
55913;SDS011;58179;48.776;9.124;2023-02-15T03:29:01;154.48;;;62.60;;
55913;SDS011;58179;48.776;9.124;2023-02-15T03:31:30;124.80;;;54.45;;
55913;SDS011;58179;48.776;9.124;2023-02-15T03:34:01;128.35;;;53.60;;
55913;SDS011;58179;48.776;9.124;2023-02-15T03:36:34;151.57;;;61.40;;
55913;SDS011;58179;48.776;9.124;2023-02-15T03:39:11;121.72;;;51.88;;
55913;SDS011;58179;48.776;9.124;2023-02-15T03:41:45;133.40;;;56.42;;
55913;SDS011;58179;48.776;9.124;2023-02-15T03:44:19;157.00;;;61.38;;
55913;SDS011;58179;48.776;9.124;2023-02-15T03:46:53;136.85;;;57.45;;
55913;SDS011;58179;48.776;9.124;2023-02-15T03:49:27;140.98;;;59.00;;
55913;SDS011;58179;48.776;9.124;2023-02-15T03:52:01;143.20;;;58.15;;
55913;SDS011;58179;48.776;9.124;2023-02-15T03:54:30;162.98;;;63.90;;
55913;SDS011;58179;48.776;9.124;2023-02-15T03:57:09;132.40;;;54.17;;
55913;SDS011;58179;48.776;9.124;2023-02-15T03:59:57;114.15;;;52.22;;
55913;SDS011;58179;48.776;9.124;2023-02-15T04:02:46;120.15;;;52.60;;
55913;SDS011;58179;48.776;9.124;2023-02-15T04:05:48;161.18;;;63.83;;
55913;SDS011;58179;48.776;9.124;2023-02-15T04:08:15;125.57;;;55.20;;
55913;SDS011;58179;48.776;9.124;2023-02-15T04:10:41;147.20;;;60.40;;
55913;SDS011;58179;48.776;9.124;2023-02-15T04:13:21;147.25;;;62.05;;
55913;SDS011;58179;48.776;9.124;2023-02-15T04:15:49;158.25;;;63.67;;
55913;SDS011;58179;48.776;9.124;2023-02-15T04:18:30;123.10;;;53.97;;
55913;SDS011;58179;48.776;9.124;2023-02-15T04:21:16;128.10;;;53.67;;
55913;SDS011;58179;48.776;9.124;2023-02-15T04:24:02;143.07;;;58.60;;
55913;SDS011;58179;48.776;9.124;2023-02-15T04:26:47;137.88;;;60.08;;
55913;SDS011;58179;48.776;9.124;2023-02-15T04:29:13;127.25;;;54.65;;
55913;SDS011;58179;48.776;9.124;2023-02-15T04:31:39;156.00;;;61.90;;
55913;SDS011;58179;48.776;9.124;2023-02-15T04:34:06;129.55;;;56.17;;
55913;SDS011;58179;48.776;9.124;2023-02-15T04:36:32;162.52;;;64.47;;
55913;SDS011;58179;48.776;9.124;2023-02-15T04:38:57;143.38;;;60.30;;
55913;SDS011;58179;48.776;9.124;2023-02-15T04:41:25;151.85;;;64.32;;
55913;SDS011;58179;48.776;9.124;2023-02-15T04:43:51;135.52;;;58.17;;
55913;SDS011;58179;48.776;9.124;2023-02-15T04:46:16;137.60;;;58.43;;
55913;SDS011;58179;48.776;9.124;2023-02-15T04:48:42;153.35;;;63.97;;
55913;SDS011;58179;48.776;9.124;2023-02-15T04:51:09;155.65;;;63.75;;
55913;SDS011;58179;48.776;9.124;2023-02-15T04:53:35;138.27;;;58.30;;
55913;SDS011;58179;48.776;9.124;2023-02-15T04:56:01;132.55;;;57.85;;
55913;SDS011;58179;48.776;9.124;2023-02-15T04:58:28;126.37;;;57.03;;
55913;SDS011;58179;48.776;9.124;2023-02-15T05:00:54;132.25;;;57.10;;
55913;SDS011;58179;48.776;9.124;2023-02-15T05:03:21;166.23;;;67.10;;
55913;SDS011;58179;48.776;9.124;2023-02-15T05:05:47;129.60;;;58.95;;
55913;SDS011;58179;48.776;9.124;2023-02-15T05:08:13;127.07;;;56.20;;
55913;SDS011;58179;48.776;9.124;2023-02-15T05:10:39;127.78;;;56.95;;
55913;SDS011;58179;48.776;9.124;2023-02-15T05:13:05;173.25;;;68.55;;
55913;SDS011;58179;48.776;9.124;2023-02-15T05:15:32;138.48;;;59.10;;
55913;SDS011;58179;48.776;9.124;2023-02-15T05:17:58;147.80;;;63.63;;
55913;SDS011;58179;48.776;9.124;2023-02-15T05:20:25;146.57;;;61.97;;
55913;SDS011;58179;48.776;9.124;2023-02-15T05:22:53;145.90;;;61.83;;
55913;SDS011;58179;48.776;9.124;2023-02-15T05:25:19;162.00;;;65.68;;
55913;SDS011;58179;48.776;9.124;2023-02-15T05:28:03;192.10;;;71.53;;
55913;SDS011;58179;48.776;9.124;2023-02-15T05:30:46;151.23;;;63.92;;
55913;SDS011;58179;48.776;9.124;2023-02-15T05:33:12;144.32;;;61.45;;
55913;SDS011;58179;48.776;9.124;2023-02-15T05:35:38;177.13;;;69.25;;
55913;SDS011;58179;48.776;9.124;2023-02-15T05:38:04;170.93;;;68.63;;
55913;SDS011;58179;48.776;9.124;2023-02-15T05:40:30;146.00;;;63.55;;
55913;SDS011;58179;48.776;9.124;2023-02-15T05:42:56;158.60;;;65.40;;
55913;SDS011;58179;48.776;9.124;2023-02-15T05:45:22;143.57;;;60.97;;
55913;SDS011;58179;48.776;9.124;2023-02-15T05:47:50;179.40;;;69.93;;
55913;SDS011;58179;48.776;9.124;2023-02-15T05:50:16;150.65;;;65.10;;
55913;SDS011;58179;48.776;9.124;2023-02-15T05:52:42;151.80;;;66.57;;
55913;SDS011;58179;48.776;9.124;2023-02-15T05:55:08;153.68;;;65.78;;
55913;SDS011;58179;48.776;9.124;2023-02-15T05:57:34;146.80;;;63.80;;
55913;SDS011;58179;48.776;9.124;2023-02-15T06:00:01;171.02;;;70.82;;
55913;SDS011;58179;48.776;9.124;2023-02-15T06:02:29;148.45;;;64.32;;
55913;SDS011;58179;48.776;9.124;2023-02-15T06:04:59;141.43;;;63.57;;
55913;SDS011;58179;48.776;9.124;2023-02-15T06:07:25;185.65;;;71.05;;
55913;SDS011;58179;48.776;9.124;2023-02-15T06:09:51;162.32;;;68.85;;
55913;SDS011;58179;48.776;9.124;2023-02-15T06:12:16;154.95;;;65.43;;
55913;SDS011;58179;48.776;9.124;2023-02-15T06:14:42;146.63;;;64.68;;
55913;SDS011;58179;48.776;9.124;2023-02-15T06:17:08;170.73;;;68.30;;
55913;SDS011;58179;48.776;9.124;2023-02-15T06:19:34;140.30;;;65.13;;
55913;SDS011;58179;48.776;9.124;2023-02-15T06:22:01;143.75;;;64.88;;
55913;SDS011;58179;48.776;9.124;2023-02-15T06:24:27;144.02;;;63.88;;
55913;SDS011;58179;48.776;9.124;2023-02-15T06:26:53;136.23;;;64.35;;
55913;SDS011;58179;48.776;9.124;2023-02-15T06:29:19;144.18;;;63.17;;
55913;SDS011;58179;48.776;9.124;2023-02-15T06:31:45;145.95;;;66.22;;
55913;SDS011;58179;48.776;9.124;2023-02-15T06:34:11;132.95;;;61.97;;
55913;SDS011;58179;48.776;9.124;2023-02-15T06:36:37;155.13;;;66.88;;
55913;SDS011;58179;48.776;9.124;2023-02-15T06:39:04;176.63;;;71.70;;
55913;SDS011;58179;48.776;9.124;2023-02-15T06:41:30;147.80;;;65.83;;
55913;SDS011;58179;48.776;9.124;2023-02-15T06:43:56;130.75;;;60.00;;
55913;SDS011;58179;48.776;9.124;2023-02-15T06:46:22;170.67;;;70.17;;
55913;SDS011;58179;48.776;9.124;2023-02-15T06:48:47;158.85;;;67.78;;
55913;SDS011;58179;48.776;9.124;2023-02-15T06:51:13;159.35;;;68.57;;
55913;SDS011;58179;48.776;9.124;2023-02-15T06:53:39;175.23;;;70.43;;
55913;SDS011;58179;48.776;9.124;2023-02-15T06:56:10;173.77;;;69.85;;
55913;SDS011;58179;48.776;9.124;2023-02-15T06:58:36;158.67;;;68.37;;
55913;SDS011;58179;48.776;9.124;2023-02-15T07:01:03;148.85;;;65.53;;
55913;SDS011;58179;48.776;9.124;2023-02-15T07:03:29;135.35;;;61.78;;
55913;SDS011;58179;48.776;9.124;2023-02-15T07:05:56;151.05;;;67.05;;
55913;SDS011;58179;48.776;9.124;2023-02-15T07:08:24;134.77;;;61.72;;
55913;SDS011;58179;48.776;9.124;2023-02-15T07:10:51;158.48;;;67.25;;
55913;SDS011;58179;48.776;9.124;2023-02-15T07:13:19;157.70;;;66.93;;
55913;SDS011;58179;48.776;9.124;2023-02-15T07:15:46;153.77;;;65.47;;
55913;SDS011;58179;48.776;9.124;2023-02-15T07:18:13;163.50;;;68.90;;
55913;SDS011;58179;48.776;9.124;2023-02-15T07:20:39;168.37;;;70.80;;
55913;SDS011;58179;48.776;9.124;2023-02-15T07:23:06;157.02;;;68.40;;
55913;SDS011;58179;48.776;9.124;2023-02-15T07:25:33;144.97;;;64.23;;
55913;SDS011;58179;48.776;9.124;2023-02-15T07:28:00;138.07;;;62.47;;
55913;SDS011;58179;48.776;9.124;2023-02-15T07:30:29;167.57;;;69.55;;
55913;SDS011;58179;48.776;9.124;2023-02-15T07:32:55;142.85;;;64.80;;
55913;SDS011;58179;48.776;9.124;2023-02-15T07:35:46;150.20;;;64.82;;
55913;SDS011;58179;48.776;9.124;2023-02-15T07:38:13;141.07;;;61.90;;
55913;SDS011;58179;48.776;9.124;2023-02-15T07:40:39;139.02;;;61.50;;
55913;SDS011;58179;48.776;9.124;2023-02-15T07:43:05;151.35;;;65.03;;
55913;SDS011;58179;48.776;9.124;2023-02-15T07:45:32;142.40;;;64.13;;
55913;SDS011;58179;48.776;9.124;2023-02-15T07:47:58;135.90;;;62.17;;
55913;SDS011;58179;48.776;9.124;2023-02-15T07:50:25;148.40;;;64.80;;
55913;SDS011;58179;48.776;9.124;2023-02-15T07:52:51;141.20;;;61.17;;
55913;SDS011;58179;48.776;9.124;2023-02-15T07:55:17;150.10;;;62.50;;
55913;SDS011;58179;48.776;9.124;2023-02-15T07:57:44;160.35;;;65.65;;
55913;SDS011;58179;48.776;9.124;2023-02-15T08:00:12;151.32;;;63.17;;
55913;SDS011;58179;48.776;9.124;2023-02-15T08:02:41;149.63;;;64.15;;
55913;SDS011;58179;48.776;9.124;2023-02-15T08:05:12;156.15;;;67.50;;
55913;SDS011;58179;48.776;9.124;2023-02-15T08:07:38;147.13;;;62.83;;
55913;SDS011;58179;48.776;9.124;2023-02-15T08:10:04;153.90;;;65.00;;
55913;SDS011;58179;48.776;9.124;2023-02-15T08:12:31;140.52;;;61.25;;
55913;SDS011;58179;48.776;9.124;2023-02-15T08:14:57;157.07;;;65.28;;
55913;SDS011;58179;48.776;9.124;2023-02-15T08:17:23;135.98;;;60.88;;
55913;SDS011;58179;48.776;9.124;2023-02-15T08:19:51;143.00;;;63.58;;
55913;SDS011;58179;48.776;9.124;2023-02-15T08:22:17;132.35;;;59.13;;
55913;SDS011;58179;48.776;9.124;2023-02-15T08:24:43;137.98;;;60.67;;
55913;SDS011;58179;48.776;9.124;2023-02-15T08:27:10;130.57;;;58.20;;
55913;SDS011;58179;48.776;9.124;2023-02-15T08:29:36;124.88;;;55.60;;
55913;SDS011;58179;48.776;9.124;2023-02-15T08:32:04;128.70;;;55.92;;
55913;SDS011;58179;48.776;9.124;2023-02-15T08:34:35;123.80;;;55.05;;
55913;SDS011;58179;48.776;9.124;2023-02-15T08:37:05;121.03;;;55.25;;
55913;SDS011;58179;48.776;9.124;2023-02-15T08:39:31;123.82;;;55.35;;
55913;SDS011;58179;48.776;9.124;2023-02-15T08:41:58;124.18;;;53.65;;
55913;SDS011;58179;48.776;9.124;2023-02-15T08:44:24;139.07;;;58.22;;
55913;SDS011;58179;48.776;9.124;2023-02-15T08:46:50;128.65;;;55.65;;
55913;SDS011;58179;48.776;9.124;2023-02-15T08:49:16;121.88;;;52.05;;
55913;SDS011;58179;48.776;9.124;2023-02-15T08:51:44;129.18;;;55.22;;
55913;SDS011;58179;48.776;9.124;2023-02-15T08:54:13;121.25;;;51.70;;
55913;SDS011;58179;48.776;9.124;2023-02-15T08:56:43;121.30;;;51.53;;
55913;SDS011;58179;48.776;9.124;2023-02-15T08:59:11;111.00;;;50.57;;
55913;SDS011;58179;48.776;9.124;2023-02-15T09:01:40;127.03;;;52.83;;
55913;SDS011;58179;48.776;9.124;2023-02-15T09:04:06;109.32;;;49.28;;
55913;SDS011;58179;48.776;9.124;2023-02-15T09:06:37;108.00;;;49.40;;
55913;SDS011;58179;48.776;9.124;2023-02-15T09:09:05;109.53;;;48.17;;
55913;SDS011;58179;48.776;9.124;2023-02-15T09:11:34;111.57;;;49.85;;
55913;SDS011;58179;48.776;9.124;2023-02-15T09:14:03;112.50;;;47.17;;
55913;SDS011;58179;48.776;9.124;2023-02-15T09:16:33;105.57;;;47.20;;
55913;SDS011;58179;48.776;9.124;2023-02-15T09:19:01;107.20;;;48.88;;
55913;SDS011;58179;48.776;9.124;2023-02-15T09:21:30;99.05;;;46.97;;
55913;SDS011;58179;48.776;9.124;2023-02-15T09:23:58;99.22;;;46.88;;
55913;SDS011;58179;48.776;9.124;2023-02-15T09:26:26;109.15;;;47.13;;
55913;SDS011;58179;48.776;9.124;2023-02-15T09:28:56;104.28;;;46.33;;
55913;SDS011;58179;48.776;9.124;2023-02-15T09:31:26;101.07;;;44.72;;
55913;SDS011;58179;48.776;9.124;2023-02-15T09:33:54;105.57;;;46.60;;
55913;SDS011;58179;48.776;9.124;2023-02-15T09:36:21;114.10;;;47.67;;
55913;SDS011;58179;48.776;9.124;2023-02-15T09:38:52;112.03;;;47.75;;
55913;SDS011;58179;48.776;9.124;2023-02-15T09:41:33;106.80;;;46.70;;
55913;SDS011;58179;48.776;9.124;2023-02-15T09:44:57;109.60;;;47.22;;
55913;SDS011;58179;48.776;9.124;2023-02-15T09:47:45;108.25;;;46.88;;
55913;SDS011;58179;48.776;9.124;2023-02-15T09:50:49;105.15;;;47.20;;
55913;SDS011;58179;48.776;9.124;2023-02-15T09:53:35;95.13;;;45.88;;
55913;SDS011;58179;48.776;9.124;2023-02-15T09:56:18;90.67;;;43.50;;
55913;SDS011;58179;48.776;9.124;2023-02-15T09:58:53;79.65;;;41.72;;
55913;SDS011;58179;48.776;9.124;2023-02-15T10:01:31;71.78;;;40.13;;
55913;SDS011;58179;48.776;9.124;2023-02-15T10:04:13;62.55;;;37.53;;
55913;SDS011;58179;48.776;9.124;2023-02-15T10:07:05;58.72;;;35.15;;
55913;SDS011;58179;48.776;9.124;2023-02-15T10:09:48;51.80;;;32.23;;
55913;SDS011;58179;48.776;9.124;2023-02-15T10:12:30;49.35;;;30.10;;
55913;SDS011;58179;48.776;9.124;2023-02-15T10:15:17;49.78;;;27.38;;
55913;SDS011;58179;48.776;9.124;2023-02-15T10:18:15;37.97;;;24.52;;
55913;SDS011;58179;48.776;9.124;2023-02-15T10:21:05;38.13;;;23.90;;
55913;SDS011;58179;48.776;9.124;2023-02-15T10:23:47;38.78;;;23.80;;
55913;SDS011;58179;48.776;9.124;2023-02-15T10:26:34;36.38;;;22.95;;
55913;SDS011;58179;48.776;9.124;2023-02-15T10:29:07;35.22;;;21.20;;
55913;SDS011;58179;48.776;9.124;2023-02-15T10:31:43;37.92;;;23.00;;
55913;SDS011;58179;48.776;9.124;2023-02-15T10:34:16;35.33;;;21.08;;
55913;SDS011;58179;48.776;9.124;2023-02-15T10:36:52;30.90;;;18.25;;
55913;SDS011;58179;48.776;9.124;2023-02-15T10:39:41;32.60;;;20.92;;
55913;SDS011;58179;48.776;9.124;2023-02-15T10:42:19;28.80;;;19.00;;
55913;SDS011;58179;48.776;9.124;2023-02-15T10:45:01;36.47;;;20.80;;
55913;SDS011;58179;48.776;9.124;2023-02-15T10:47:45;32.67;;;21.53;;
55913;SDS011;58179;48.776;9.124;2023-02-15T10:50:52;31.67;;;20.23;;
55913;SDS011;58179;48.776;9.124;2023-02-15T10:53:34;33.72;;;20.92;;
55913;SDS011;58179;48.776;9.124;2023-02-15T10:56:17;30.50;;;19.10;;
55913;SDS011;58179;48.776;9.124;2023-02-15T10:58:56;28.52;;;19.23;;
55913;SDS011;58179;48.776;9.124;2023-02-15T11:01:46;26.20;;;17.85;;
55913;SDS011;58179;48.776;9.124;2023-02-15T11:04:32;30.95;;;19.08;;
55913;SDS011;58179;48.776;9.124;2023-02-15T11:07:21;27.08;;;18.58;;
55913;SDS011;58179;48.776;9.124;2023-02-15T11:09:53;32.72;;;20.10;;
55913;SDS011;58179;48.776;9.124;2023-02-15T11:12:30;30.97;;;19.47;;
55913;SDS011;58179;48.776;9.124;2023-02-15T11:14:58;29.75;;;18.77;;
55913;SDS011;58179;48.776;9.124;2023-02-15T11:17:30;25.90;;;17.27;;
55913;SDS011;58179;48.776;9.124;2023-02-15T11:20:05;29.52;;;19.17;;
55913;SDS011;58179;48.776;9.124;2023-02-15T11:22:43;30.23;;;19.17;;
55913;SDS011;58179;48.776;9.124;2023-02-15T11:25:16;34.55;;;19.80;;
55913;SDS011;58179;48.776;9.124;2023-02-15T11:27:45;28.80;;;18.92;;
55913;SDS011;58179;48.776;9.124;2023-02-15T11:30:14;36.42;;;21.48;;
55913;SDS011;58179;48.776;9.124;2023-02-15T11:32:45;32.80;;;19.38;;
55913;SDS011;58179;48.776;9.124;2023-02-15T11:35:18;30.17;;;19.85;;
55913;SDS011;58179;48.776;9.124;2023-02-15T11:37:55;27.42;;;17.95;;
55913;SDS011;58179;48.776;9.124;2023-02-15T11:40:29;29.95;;;18.88;;
55913;SDS011;58179;48.776;9.124;2023-02-15T11:43:00;28.33;;;18.92;;
55913;SDS011;58179;48.776;9.124;2023-02-15T11:45:32;30.25;;;18.83;;
55913;SDS011;58179;48.776;9.124;2023-02-15T11:48:00;32.97;;;19.40;;
55913;SDS011;58179;48.776;9.124;2023-02-15T11:50:33;30.48;;;18.65;;
55913;SDS011;58179;48.776;9.124;2023-02-15T11:53:01;27.88;;;19.10;;
55913;SDS011;58179;48.776;9.124;2023-02-15T11:55:29;29.85;;;18.85;;
55913;SDS011;58179;48.776;9.124;2023-02-15T11:57:57;29.05;;;18.90;;
55913;SDS011;58179;48.776;9.124;2023-02-15T12:00:31;24.83;;;16.92;;
55913;SDS011;58179;48.776;9.124;2023-02-15T12:03:02;27.85;;;19.67;;
55913;SDS011;58179;48.776;9.124;2023-02-15T12:05:39;29.23;;;18.40;;
55913;SDS011;58179;48.776;9.124;2023-02-15T12:08:12;26.40;;;19.38;;
55913;SDS011;58179;48.776;9.124;2023-02-15T12:10:46;28.30;;;19.38;;
55913;SDS011;58179;48.776;9.124;2023-02-15T12:13:24;32.90;;;22.10;;
55913;SDS011;58179;48.776;9.124;2023-02-15T12:15:50;34.70;;;22.08;;
55913;SDS011;58179;48.776;9.124;2023-02-15T12:18:20;31.02;;;21.50;;
55913;SDS011;58179;48.776;9.124;2023-02-15T12:21:02;30.00;;;20.13;;
55913;SDS011;58179;48.776;9.124;2023-02-15T12:23:32;33.90;;;22.10;;
55913;SDS011;58179;48.776;9.124;2023-02-15T12:26:04;27.70;;;20.13;;
55913;SDS011;58179;48.776;9.124;2023-02-15T12:28:31;34.55;;;22.17;;
55913;SDS011;58179;48.776;9.124;2023-02-15T12:31:01;44.88;;;26.23;;
55913;SDS011;58179;48.776;9.124;2023-02-15T12:33:34;35.00;;;23.50;;
55913;SDS011;58179;48.776;9.124;2023-02-15T12:36:09;35.67;;;23.73;;
55913;SDS011;58179;48.776;9.124;2023-02-15T12:38:41;30.05;;;21.33;;
55913;SDS011;58179;48.776;9.124;2023-02-15T12:41:23;29.45;;;20.92;;
55913;SDS011;58179;48.776;9.124;2023-02-15T12:44:02;34.55;;;23.30;;
55913;SDS011;58179;48.776;9.124;2023-02-15T12:46:31;38.25;;;25.55;;
55913;SDS011;58179;48.776;9.124;2023-02-15T12:49:07;36.25;;;25.00;;
55913;SDS011;58179;48.776;9.124;2023-02-15T12:51:45;38.80;;;26.48;;
55913;SDS011;58179;48.776;9.124;2023-02-15T12:57:15;37.15;;;25.30;;
55913;SDS011;58179;48.776;9.124;2023-02-15T12:59:50;40.63;;;27.20;;
55913;SDS011;58179;48.776;9.124;2023-02-15T13:02:30;43.55;;;27.35;;
55913;SDS011;58179;48.776;9.124;2023-02-15T13:05:10;36.00;;;23.85;;
55913;SDS011;58179;48.776;9.124;2023-02-15T13:07:45;34.53;;;24.55;;
55913;SDS011;58179;48.776;9.124;2023-02-15T13:10:23;33.22;;;23.10;;
55913;SDS011;58179;48.776;9.124;2023-02-15T13:12:53;34.20;;;23.77;;
55913;SDS011;58179;48.776;9.124;2023-02-15T13:15:27;41.08;;;26.52;;
55913;SDS011;58179;48.776;9.124;2023-02-15T13:17:59;38.78;;;25.90;;
55913;SDS011;58179;48.776;9.124;2023-02-15T13:20:26;36.55;;;24.23;;
55913;SDS011;58179;48.776;9.124;2023-02-15T13:22:54;37.10;;;24.92;;
55913;SDS011;58179;48.776;9.124;2023-02-15T13:25:26;42.97;;;27.10;;
55913;SDS011;58179;48.776;9.124;2023-02-15T13:27:57;38.45;;;25.25;;
55913;SDS011;58179;48.776;9.124;2023-02-15T13:30:28;41.05;;;27.70;;
55913;SDS011;58179;48.776;9.124;2023-02-15T13:33:01;38.42;;;25.95;;
55913;SDS011;58179;48.776;9.124;2023-02-15T13:35:34;34.85;;;24.40;;
55913;SDS011;58179;48.776;9.124;2023-02-15T13:41:12;35.33;;;24.05;;
55913;SDS011;58179;48.776;9.124;2023-02-15T13:43:46;39.27;;;24.50;;
55913;SDS011;58179;48.776;9.124;2023-02-15T13:46:23;35.22;;;24.77;;
55913;SDS011;58179;48.776;9.124;2023-02-15T13:49:11;37.15;;;23.83;;
55913;SDS011;58179;48.776;9.124;2023-02-15T13:51:52;33.40;;;22.80;;
55913;SDS011;58179;48.776;9.124;2023-02-15T13:54:30;35.08;;;22.85;;
55913;SDS011;58179;48.776;9.124;2023-02-15T13:57:19;33.53;;;22.63;;
55913;SDS011;58179;48.776;9.124;2023-02-15T14:00:08;36.97;;;23.20;;
55913;SDS011;58179;48.776;9.124;2023-02-15T14:02:46;36.42;;;21.75;;
55913;SDS011;58179;48.776;9.124;2023-02-15T14:09:29;28.55;;;20.52;;
55913;SDS011;58179;48.776;9.124;2023-02-15T14:12:17;26.80;;;18.42;;
55913;SDS011;58179;48.776;9.124;2023-02-15T14:15:11;30.60;;;20.50;;
55913;SDS011;58179;48.776;9.124;2023-02-15T14:17:54;27.53;;;19.47;;
55913;SDS011;58179;48.776;9.124;2023-02-15T14:20:36;27.92;;;19.13;;
55913;SDS011;58179;48.776;9.124;2023-02-15T14:23:19;25.67;;;17.65;;
55913;SDS011;58179;48.776;9.124;2023-02-15T14:26:02;34.07;;;19.60;;
55913;SDS011;58179;48.776;9.124;2023-02-15T14:28:36;31.80;;;20.05;;
55913;SDS011;58179;48.776;9.124;2023-02-15T14:31:11;31.70;;;19.95;;
55913;SDS011;58179;48.776;9.124;2023-02-15T14:33:39;26.00;;;16.98;;
55913;SDS011;58179;48.776;9.124;2023-02-15T14:36:17;22.38;;;15.60;;
55913;SDS011;58179;48.776;9.124;2023-02-15T14:38:48;25.90;;;16.90;;
55913;SDS011;58179;48.776;9.124;2023-02-15T14:41:28;26.67;;;16.73;;
55913;SDS011;58179;48.776;9.124;2023-02-15T14:44:08;19.58;;;12.90;;
55913;SDS011;58179;48.776;9.124;2023-02-15T14:46:42;20.85;;;14.48;;
55913;SDS011;58179;48.776;9.124;2023-02-15T14:49:18;21.25;;;13.75;;
55913;SDS011;58179;48.776;9.124;2023-02-15T14:51:55;16.67;;;12.43;;
55913;SDS011;58179;48.776;9.124;2023-02-15T14:54:55;17.60;;;11.75;;
55913;SDS011;58179;48.776;9.124;2023-02-15T14:57:26;21.88;;;15.15;;
55913;SDS011;58179;48.776;9.124;2023-02-15T14:59:57;21.02;;;14.50;;
55913;SDS011;58179;48.776;9.124;2023-02-15T15:02:26;25.33;;;15.38;;